createdAt,value
2018-03-06T00:00:42.197Z,59.33
2018-03-06T00:03:11.044Z,64.10
2018-03-06T00:05:38.914Z,67.90
2018-03-06T00:08:06.799Z,66.77
2018-03-06T00:10:34.671Z,67.70
2018-03-06T00:13:02.742Z,68.53
2018-03-06T00:15:31.446Z,74.83
2018-03-06T00:18:00.097Z,74.07
2018-03-06T00:20:27.971Z,64.07
2018-03-06T00:22:55.781Z,66.97
2018-03-06T00:25:23.549Z,69.30
2018-03-06T00:27:51.426Z,68.97
2018-03-06T00:30:19.354Z,73.27
2018-03-06T00:32:47.300Z,68.37
2018-03-06T00:35:15.966Z,65.33
2018-03-06T00:37:43.824Z,66.53
2018-03-06T00:40:11.725Z,64.37
2018-03-06T00:42:40.425Z,69.00
2018-03-06T00:45:08.357Z,71.77
2018-03-06T00:47:36.346Z,68.30
2018-03-06T00:50:05.148Z,69.87
2018-03-06T00:52:33.034Z,69.90
2018-03-06T00:55:00.882Z,73.00
2018-03-06T00:57:29.667Z,81.23
2018-03-06T00:59:58.456Z,84.63
2018-03-06T01:02:26.410Z,80.23
2018-03-06T01:04:55.108Z,74.83
2018-03-06T01:07:23.694Z,88.17
2018-03-06T01:09:52.273Z,83.97
2018-03-06T01:12:20.938Z,69.73
2018-03-06T01:14:48.731Z,77.53
2018-03-06T01:17:16.575Z,77.60
2018-03-06T01:19:45.124Z,73.00
2018-03-06T01:22:13.023Z,80.10
2018-03-06T01:24:40.890Z,71.77
2018-03-06T01:27:09.603Z,87.97
2018-03-06T01:29:38.266Z,76.70
2018-03-06T01:32:06.829Z,72.53
2018-03-06T01:34:34.812Z,83.77
2018-03-06T01:37:02.996Z,79.97
2018-03-06T01:39:30.957Z,85.70
2018-03-06T01:41:59.552Z,81.40
2018-03-06T01:44:28.142Z,77.90
2018-03-06T01:46:56.197Z,75.77
2018-03-06T01:49:24.148Z,95.10
2018-03-06T01:51:59.742Z,94.60
2018-03-06T01:54:27.599Z,95.83
2018-03-06T01:56:55.444Z,77.83
2018-03-06T01:59:23.271Z,88.73
2018-03-06T02:01:51.075Z,83.87
2018-03-06T02:04:19.680Z,88.47
2018-03-06T02:06:48.233Z,87.93
2018-03-06T02:09:16.104Z,93.83
2018-03-06T02:11:44.059Z,103.27
2018-03-06T02:14:27.044Z,90.70
2018-03-06T02:16:54.939Z,86.47
2018-03-06T02:19:22.795Z,88.67
2018-03-06T02:21:50.807Z,96.60
2018-03-06T02:24:19.485Z,98.60
2018-03-06T02:26:48.160Z,91.73
2018-03-06T02:29:16.019Z,99.50
2018-03-06T02:31:44.004Z,109.23
2018-03-06T02:34:12.719Z,87.43
2018-03-06T02:36:40.494Z,97.43
2018-03-06T02:39:08.417Z,104.20
2018-03-06T02:41:37.109Z,93.27
2018-03-06T02:44:05.781Z,87.50
2018-03-06T02:46:33.748Z,93.30
2018-03-06T02:49:01.828Z,85.57
2018-03-06T02:51:30.440Z,82.80
2018-03-06T02:53:58.473Z,85.97
2018-03-06T02:56:26.271Z,84.57
2018-03-06T02:59:05.691Z,82.30
2018-03-06T03:01:34.449Z,91.90
2018-03-06T03:04:02.204Z,90.80
2018-03-06T03:06:30.198Z,85.67
2018-03-06T03:08:58.262Z,99.57
2018-03-06T03:11:26.038Z,89.53
2018-03-06T03:13:53.993Z,88.13
2018-03-06T03:16:22.475Z,96.60
2018-03-06T03:18:51.263Z,110.27
2018-03-06T03:21:19.253Z,113.00
2018-03-06T03:23:48.630Z,123.03
2018-03-06T03:26:16.520Z,134.90
2018-03-06T03:28:45.117Z,123.73
2018-03-06T03:31:13.896Z,130.27
2018-03-06T03:33:42.681Z,140.87
2018-03-06T03:36:11.338Z,134.77
2018-03-06T03:38:39.156Z,162.80
2018-03-06T03:41:07.078Z,135.27
2018-03-06T03:43:34.917Z,139.53
2018-03-06T03:46:02.723Z,113.03
2018-03-06T03:48:31.510Z,127.03
2018-03-06T03:51:00.036Z,127.27
2018-03-06T03:53:27.931Z,130.93
2018-03-06T03:55:56.284Z,123.93
2018-03-06T03:58:24.177Z,136.87
2018-03-06T04:00:51.980Z,116.30
2018-03-06T04:03:21.012Z,132.20
2018-03-06T04:05:49.034Z,137.83
2018-03-06T04:08:16.840Z,133.23
2018-03-06T04:10:44.628Z,149.73
2018-03-06T04:13:12.440Z,146.83
2018-03-06T04:15:40.999Z,142.47
2018-03-06T04:18:08.783Z,149.07
2018-03-06T04:20:42.694Z,139.70
2018-03-06T04:23:12.326Z,149.17
2018-03-06T04:25:42.276Z,164.53
2018-03-06T04:28:12.254Z,130.57
2018-03-06T04:30:40.381Z,149.37
2018-03-06T04:33:08.268Z,141.80
2018-03-06T04:35:36.233Z,149.93
2018-03-06T04:38:04.919Z,169.37
2018-03-06T04:40:32.881Z,178.93
2018-03-06T04:43:00.776Z,173.60
2018-03-06T04:45:28.773Z,170.83
2018-03-06T04:47:56.612Z,167.33
2018-03-06T04:50:25.364Z,205.83
2018-03-06T04:52:53.254Z,176.70
2018-03-06T04:55:21.910Z,203.13
2018-03-06T04:57:49.800Z,216.47
2018-03-06T05:00:18.478Z,225.63
2018-03-06T05:02:47.149Z,212.80
2018-03-06T05:05:15.876Z,227.90
2018-03-06T05:07:59.573Z,228.10
2018-03-06T05:10:27.687Z,266.90
2018-03-06T05:12:56.241Z,256.47
2018-03-06T05:15:24.105Z,254.37
2018-03-06T05:17:51.993Z,270.87
2018-03-06T05:20:20.785Z,239.07
2018-03-06T05:22:49.758Z,262.57
2018-03-06T05:25:18.429Z,283.43
2018-03-06T05:27:46.304Z,260.30
2018-03-06T05:30:14.091Z,255.87
2018-03-06T05:32:41.966Z,265.10
2018-03-06T05:35:09.725Z,263.63
2018-03-06T05:37:38.383Z,274.67
2018-03-06T05:40:06.343Z,268.13
2018-03-06T05:42:34.166Z,264.13
2018-03-06T05:45:02.179Z,242.73
2018-03-06T05:47:30.032Z,260.43
2018-03-06T05:49:58.039Z,285.00
2018-03-06T05:52:26.577Z,256.13
2018-03-06T05:54:54.583Z,268.63
2018-03-06T05:57:23.153Z,312.63
2018-03-06T05:59:51.322Z,332.67
2018-03-06T06:02:19.188Z,327.67
2018-03-06T06:04:47.067Z,298.10
2018-03-06T06:07:14.888Z,287.13
2018-03-06T06:09:42.650Z,274.40
2018-03-06T06:12:10.580Z,285.80
2018-03-06T06:14:38.430Z,275.93
2018-03-06T06:17:06.328Z,284.70
2018-03-06T06:19:35.075Z,284.60
2018-03-06T06:22:03.038Z,274.53
2018-03-06T06:24:31.003Z,283.93
2018-03-06T06:26:58.755Z,293.63
2018-03-06T06:29:26.560Z,264.63
2018-03-06T06:31:54.527Z,254.03
2018-03-06T06:34:22.386Z,259.77
2018-03-06T06:36:50.255Z,266.07
2018-03-06T06:39:18.020Z,242.37
2018-03-06T06:41:45.977Z,258.20
2018-03-06T06:44:13.704Z,252.70
2018-03-06T06:46:41.634Z,240.37
2018-03-06T06:49:09.585Z,296.43
2018-03-06T06:51:37.570Z,284.57
2018-03-06T06:54:05.367Z,262.97
2018-03-06T06:56:34.092Z,277.67
2018-03-06T06:59:01.975Z,233.57
2018-03-06T07:01:29.751Z,266.53
2018-03-06T07:03:57.588Z,280.87
2018-03-06T07:06:25.370Z,260.80
2018-03-06T07:08:53.319Z,258.73
2018-03-06T07:11:21.426Z,265.80
2018-03-06T07:13:49.372Z,261.17
2018-03-06T07:16:17.163Z,255.57
2018-03-06T07:18:45.073Z,272.67
2018-03-06T07:21:13.184Z,251.53
2018-03-06T07:23:42.253Z,249.57
2018-03-06T07:26:10.244Z,225.63
2018-03-06T07:28:38.507Z,265.80
2018-03-06T07:31:06.373Z,251.40
2018-03-06T07:33:34.274Z,258.90
2018-03-06T07:36:02.822Z,252.10
2018-03-06T07:38:31.313Z,268.70
2018-03-06T07:40:59.999Z,294.17
2018-03-06T07:43:28.056Z,281.60
2018-03-06T07:45:55.948Z,274.27
2018-03-06T07:48:23.790Z,264.57
2018-03-06T07:50:51.574Z,289.80
2018-03-06T07:53:19.651Z,280.67
2018-03-06T07:55:47.647Z,266.60
2018-03-06T07:58:16.301Z,299.53
2018-03-06T08:00:44.143Z,285.67
2018-03-06T08:03:12.029Z,249.27
2018-03-06T08:05:39.877Z,270.63
2018-03-06T08:08:07.759Z,256.07
2018-03-06T08:10:35.635Z,293.27
2018-03-06T08:13:03.503Z,279.50
2018-03-06T08:15:31.550Z,252.37
2018-03-06T08:17:59.427Z,229.27
2018-03-06T08:20:27.285Z,244.50
2018-03-06T08:22:55.169Z,264.60
2018-03-06T08:25:23.047Z,255.60
2018-03-06T08:27:50.854Z,264.23
2018-03-06T08:30:19.791Z,257.43
2018-03-06T08:32:47.748Z,307.20
2018-03-06T08:35:15.655Z,260.70
2018-03-06T08:37:44.266Z,258.23
2018-03-06T08:40:12.465Z,261.83
2018-03-06T08:42:40.275Z,261.27
2018-03-06T08:45:08.810Z,248.80
2018-03-06T08:47:36.692Z,223.10
2018-03-06T08:50:04.558Z,233.60
2018-03-06T08:52:32.521Z,219.77
2018-03-06T08:55:00.398Z,261.33
2018-03-06T08:57:28.719Z,242.53
2018-03-06T08:59:57.391Z,229.73
2018-03-06T09:02:25.309Z,216.17
2018-03-06T09:04:53.192Z,239.60
2018-03-06T09:07:21.256Z,271.50
2018-03-06T09:09:49.166Z,253.70
2018-03-06T09:12:17.804Z,232.33
2018-03-06T09:14:45.699Z,234.13
2018-03-06T09:17:13.495Z,222.93
2018-03-06T09:19:41.309Z,232.10
2018-03-06T09:22:09.375Z,215.13
2018-03-06T09:24:37.143Z,238.33
2018-03-06T09:27:04.997Z,226.97
2018-03-06T09:29:33.076Z,220.57
2018-03-06T09:32:01.153Z,214.50
2018-03-06T09:34:29.161Z,215.43
2018-03-06T09:36:57.709Z,214.73
2018-03-06T09:39:25.705Z,216.57
2018-03-06T09:42:01.904Z,214.00
2018-03-06T09:44:31.023Z,213.37
2018-03-06T09:46:58.900Z,223.00
2018-03-06T09:49:27.626Z,207.70
2018-03-06T09:51:56.980Z,224.23
2018-03-06T09:54:24.879Z,231.87
2018-03-06T09:56:52.846Z,221.63
2018-03-06T09:59:20.681Z,217.00
2018-03-06T10:01:48.672Z,249.60
2018-03-06T10:04:17.059Z,217.33
2018-03-06T10:06:45.036Z,319.87
2018-03-06T10:09:14.626Z,289.80
2018-03-06T10:11:42.628Z,294.23
2018-03-06T10:14:10.627Z,219.10
2018-03-06T10:16:39.330Z,196.30
2018-03-06T10:19:07.191Z,187.30
2018-03-06T10:21:35.284Z,207.13
2018-03-06T10:24:03.149Z,207.70
2018-03-06T10:26:30.952Z,220.77
2018-03-06T10:28:58.768Z,209.83
2018-03-06T10:31:26.812Z,217.40
2018-03-06T10:33:54.716Z,224.33
2018-03-06T10:36:22.686Z,208.57
2018-03-06T10:38:50.637Z,205.23
2018-03-06T10:41:18.645Z,212.43
2018-03-06T10:43:46.675Z,225.77
2018-03-06T10:46:14.768Z,202.00
2018-03-06T10:48:42.631Z,208.13
2018-03-06T10:51:10.786Z,226.27
2018-03-06T10:53:38.538Z,200.73
2018-03-06T10:56:06.453Z,212.87
2018-03-06T10:58:34.425Z,219.07
2018-03-06T11:01:03.162Z,186.67
2018-03-06T11:03:31.216Z,191.83
2018-03-06T11:05:58.979Z,192.13
2018-03-06T11:08:27.370Z,206.07
2018-03-06T11:10:55.301Z,193.80
2018-03-06T11:13:23.949Z,195.97
2018-03-06T11:15:51.909Z,352.90
2018-03-06T11:18:20.491Z,216.20
2018-03-06T11:20:48.427Z,196.43
2018-03-06T11:23:16.252Z,204.93
2018-03-06T11:25:44.237Z,181.13
2018-03-06T11:28:14.079Z,179.03
2018-03-06T11:30:41.895Z,201.40
2018-03-06T11:33:10.046Z,171.20
2018-03-06T11:35:37.963Z,196.10
2018-03-06T11:38:06.806Z,195.17
2018-03-06T11:40:35.510Z,171.40
2018-03-06T11:43:03.293Z,172.73
2018-03-06T11:45:33.702Z,169.63
2018-03-06T11:48:01.757Z,164.40
2018-03-06T11:50:29.579Z,158.87
2018-03-06T11:52:57.617Z,174.17
2018-03-06T11:55:25.538Z,159.67
2018-03-06T11:57:53.626Z,147.53
2018-03-06T12:00:26.018Z,141.27
2018-03-06T12:02:53.965Z,146.53
2018-03-06T12:05:22.261Z,135.93
2018-03-06T12:07:50.633Z,132.50
2018-03-06T12:10:18.801Z,133.60
2018-03-06T12:12:46.777Z,133.50
2018-03-06T12:15:14.787Z,138.53
2018-03-06T12:17:42.613Z,136.03
2018-03-06T12:20:10.782Z,150.47
2018-03-06T12:22:38.657Z,132.67
2018-03-06T12:25:06.534Z,124.50
2018-03-06T12:27:34.474Z,120.07
2018-03-06T12:30:02.528Z,147.50
2018-03-06T12:32:31.459Z,113.83
2018-03-06T12:34:59.617Z,120.60
2018-03-06T12:37:28.173Z,135.30
2018-03-06T12:39:56.078Z,124.03
2018-03-06T12:42:24.030Z,124.63
2018-03-06T12:44:52.015Z,132.23
2018-03-06T12:47:19.885Z,132.47
2018-03-06T12:49:47.800Z,139.43
2018-03-06T12:52:15.738Z,139.87
2018-03-06T12:54:43.893Z,130.00
2018-03-06T12:57:12.161Z,143.07
2018-03-06T12:59:40.123Z,138.50
2018-03-06T13:02:07.987Z,140.77
2018-03-06T13:04:35.764Z,156.97
2018-03-06T13:07:03.837Z,150.77
2018-03-06T13:09:31.624Z,142.77
2018-03-06T13:12:00.318Z,159.40
2018-03-06T13:14:29.369Z,138.03
2018-03-06T13:16:57.455Z,157.20
2018-03-06T13:19:25.361Z,131.40
2018-03-06T13:21:53.298Z,155.23
2018-03-06T13:24:21.484Z,145.73
2018-03-06T13:26:50.143Z,152.60
2018-03-06T13:29:18.014Z,128.53
2018-03-06T13:31:45.912Z,130.90
2018-03-06T13:34:14.530Z,136.73
2018-03-06T13:36:42.432Z,119.73
2018-03-06T13:39:10.275Z,112.60
2018-03-06T13:41:38.271Z,108.93
2018-03-06T13:44:06.230Z,89.67
2018-03-06T13:46:34.586Z,96.43
2018-03-06T13:49:02.496Z,76.43
2018-03-06T13:51:30.703Z,67.50
2018-03-06T13:53:58.838Z,80.80
2018-03-06T13:56:27.834Z,78.03
2018-03-06T13:58:55.789Z,82.97
2018-03-06T14:01:23.868Z,94.50
2018-03-06T14:03:52.559Z,102.27
2018-03-06T14:06:20.411Z,101.33
2018-03-06T14:08:48.264Z,116.27
2018-03-06T14:11:16.298Z,118.40
2018-03-06T14:13:44.406Z,104.67
2018-03-06T14:16:12.475Z,126.70
2018-03-06T14:18:40.652Z,118.13
2018-03-06T14:21:08.560Z,116.77
2018-03-06T14:23:37.218Z,130.57
2018-03-06T14:26:05.190Z,120.07
2018-03-06T14:28:33.857Z,127.20
2018-03-06T14:31:02.944Z,122.53
2018-03-06T14:33:30.994Z,123.13
2018-03-06T14:35:58.837Z,121.50
2018-03-06T14:38:28.115Z,132.40
2018-03-06T14:40:56.055Z,119.83
2018-03-06T14:43:24.027Z,115.73
2018-03-06T14:45:51.887Z,102.03
2018-03-06T14:48:19.856Z,107.17
2018-03-06T14:50:47.603Z,103.03
2018-03-06T14:53:15.375Z,107.87
2018-03-06T14:55:43.477Z,87.20
2018-03-06T14:58:11.269Z,93.43
2018-03-06T15:00:39.832Z,95.47
2018-03-06T15:03:07.633Z,100.07
2018-03-06T15:05:35.665Z,104.60
2018-03-06T15:08:04.145Z,97.23
2018-03-06T15:10:33.447Z,87.27
2018-03-06T15:13:03.076Z,114.40
2018-03-06T15:15:31.710Z,88.70
2018-03-06T15:17:59.714Z,88.50
2018-03-06T15:20:29.205Z,96.27
2018-03-06T15:22:57.122Z,104.13
2018-03-06T15:25:26.086Z,97.03
2018-03-06T15:27:53.932Z,100.37
2018-03-06T15:30:21.914Z,90.73
2018-03-06T15:32:49.860Z,96.37
2018-03-06T15:35:17.822Z,109.33
2018-03-06T15:37:46.341Z,93.80
2018-03-06T15:40:14.295Z,96.00
2018-03-06T15:42:42.191Z,95.70
2018-03-06T15:45:11.064Z,117.83
2018-03-06T15:47:38.909Z,103.00
2018-03-06T15:50:06.767Z,92.33
2018-03-06T15:52:34.623Z,94.63
2018-03-06T15:55:02.448Z,102.40
2018-03-06T15:57:31.307Z,133.20
2018-03-06T16:00:00.097Z,100.33
2018-03-06T16:02:28.476Z,108.57
2018-03-06T16:04:56.449Z,94.10
2018-03-06T16:07:24.698Z,108.93
2018-03-06T16:09:52.681Z,103.33
2018-03-06T16:12:21.553Z,103.20
2018-03-06T16:14:49.754Z,95.93
2018-03-06T16:17:17.625Z,99.27
2018-03-06T16:19:45.570Z,108.93
2018-03-06T16:22:13.538Z,87.63
2018-03-06T16:24:41.640Z,84.23
2018-03-06T16:27:09.751Z,88.27
2018-03-06T16:29:37.679Z,98.50
2018-03-06T16:32:05.648Z,88.60
2018-03-06T16:34:34.308Z,87.13
2018-03-06T16:37:02.290Z,93.17
2018-03-06T16:39:30.496Z,91.40
2018-03-06T16:41:59.217Z,90.23
2018-03-06T16:44:27.336Z,78.33
2018-03-06T16:46:57.559Z,78.63
2018-03-06T16:49:25.713Z,76.03
2018-03-06T16:51:55.004Z,78.63
2018-03-06T16:54:23.033Z,88.97
2018-03-06T16:56:51.449Z,64.37
2018-03-06T16:59:19.291Z,80.67
2018-03-06T17:01:47.099Z,70.13
2018-03-06T17:04:15.272Z,69.97
2018-03-06T17:06:43.164Z,77.70
2018-03-06T17:09:10.998Z,66.07
2018-03-06T17:11:39.338Z,73.00
2018-03-06T17:14:07.227Z,71.07
2018-03-06T17:16:35.094Z,66.70
2018-03-06T17:19:07.074Z,76.00
2018-03-06T17:21:37.233Z,77.63
2018-03-06T17:24:06.880Z,82.90
2018-03-06T17:26:37.725Z,89.33
2018-03-06T17:29:06.681Z,80.90
2018-03-06T17:31:34.808Z,88.60
2018-03-06T17:34:09.667Z,96.23
2018-03-06T17:36:37.774Z,100.00
2018-03-06T17:39:05.968Z,149.50
2018-03-06T17:41:33.829Z,108.53
2018-03-06T17:44:01.878Z,105.97
2018-03-06T17:46:31.159Z,104.20
2018-03-06T17:48:59.986Z,94.23
2018-03-06T17:51:28.398Z,94.73
2018-03-06T17:53:57.041Z,95.77
2018-03-06T17:56:25.026Z,106.13
2018-03-06T17:58:53.204Z,91.13
2018-03-06T18:01:21.367Z,108.30
2018-03-06T18:03:49.186Z,103.80
2018-03-06T18:06:17.960Z,99.40
2018-03-06T18:08:46.198Z,92.17
2018-03-06T18:11:14.289Z,111.30
2018-03-06T18:13:42.151Z,87.80
2018-03-06T18:16:10.617Z,99.37
2018-03-06T18:18:38.945Z,92.50
2018-03-06T18:21:06.985Z,93.30
2018-03-06T18:23:34.757Z,103.13
2018-03-06T18:26:03.103Z,96.03
2018-03-06T18:28:31.175Z,98.60
2018-03-06T18:30:59.533Z,85.93
2018-03-06T18:33:28.139Z,91.00
2018-03-06T18:36:00.141Z,90.13
2018-03-06T18:38:29.615Z,81.97
2018-03-06T18:40:58.332Z,82.60
2018-03-06T18:43:27.593Z,81.40
2018-03-06T18:45:55.699Z,90.70
2018-03-06T18:48:23.632Z,93.77
2018-03-06T18:51:04.312Z,77.40
2018-03-06T18:53:32.179Z,76.30
2018-03-06T18:56:00.073Z,77.90
2018-03-06T18:58:29.025Z,103.87
2018-03-06T19:01:09.521Z,97.67
2018-03-06T19:03:49.433Z,97.23
2018-03-06T19:06:24.387Z,77.10
2018-03-06T19:08:52.539Z,81.20
2018-03-06T19:11:20.561Z,76.77
2018-03-06T19:13:48.792Z,63.60
2018-03-06T19:16:16.975Z,63.77
2018-03-06T19:18:45.225Z,54.47
2018-03-06T19:21:13.229Z,61.17
2018-03-06T19:23:41.239Z,54.73
2018-03-06T19:26:09.357Z,63.63
2018-03-06T19:28:37.193Z,65.63
2018-03-06T19:31:05.142Z,72.00
2018-03-06T19:33:33.358Z,66.10
2018-03-06T19:36:02.275Z,58.70
2018-03-06T19:38:30.577Z,46.57
2018-03-06T19:40:59.900Z,44.37
2018-03-06T19:43:28.414Z,54.00
2018-03-06T19:45:56.682Z,48.30
2018-03-06T19:48:25.577Z,46.03
2018-03-06T19:50:53.881Z,51.30
2018-03-06T19:53:22.228Z,52.53
2018-03-06T19:55:51.424Z,50.67
2018-03-06T19:58:20.344Z,46.10
2018-03-06T20:00:48.593Z,53.40
2018-03-06T20:03:18.328Z,54.17
2018-03-06T20:05:46.123Z,53.70
2018-03-06T20:08:14.888Z,59.23
2018-03-06T20:10:44.157Z,57.03
2018-03-06T20:13:13.724Z,74.47
2018-03-06T20:15:41.934Z,84.77
2018-03-06T20:18:10.211Z,74.07
2018-03-06T20:20:38.779Z,102.67
2018-03-06T20:23:08.071Z,103.17
2018-03-06T20:25:41.745Z,104.53
2018-03-06T20:28:10.930Z,111.27
2018-03-06T20:30:57.330Z,110.03
2018-03-06T20:33:25.797Z,121.87
2018-03-06T20:35:53.861Z,111.30
2018-03-06T20:38:27.415Z,85.20
2018-03-06T20:40:55.316Z,92.43
2018-03-06T20:43:23.591Z,88.70
2018-03-06T20:45:57.309Z,78.27
2018-03-06T20:48:25.189Z,78.33
2018-03-06T20:50:53.163Z,85.03
2018-03-06T20:53:27.178Z,82.40
2018-03-06T20:55:55.808Z,76.43
2018-03-06T20:58:24.929Z,82.90
2018-03-06T21:00:53.123Z,76.80
2018-03-06T21:03:22.822Z,61.87
2018-03-06T21:05:50.685Z,53.47
2018-03-06T21:08:18.760Z,50.60
2018-03-06T21:10:46.716Z,47.60
2018-03-06T21:13:15.011Z,44.27
2018-03-06T21:15:43.264Z,39.57
2018-03-06T21:18:11.249Z,45.43
2018-03-06T21:20:39.225Z,39.30
2018-03-06T21:23:08.511Z,38.13
2018-03-06T21:25:37.207Z,43.97
2018-03-06T21:28:05.177Z,35.93
2018-03-06T21:30:32.969Z,33.30
2018-03-06T21:33:01.817Z,34.67
2018-03-06T21:35:29.882Z,46.90
2018-03-06T21:37:58.361Z,38.93
2018-03-06T21:40:26.443Z,44.50
2018-03-06T21:42:54.188Z,36.43
2018-03-06T21:45:22.188Z,37.47
2018-03-06T21:47:50.955Z,24.77
2018-03-06T21:50:18.731Z,33.73
2018-03-06T21:52:46.586Z,33.53
2018-03-06T21:55:14.654Z,28.60
2018-03-06T21:57:42.949Z,34.40
2018-03-06T22:00:11.194Z,30.43
2018-03-06T22:02:39.490Z,30.47
2018-03-06T22:05:07.599Z,29.43
2018-03-06T22:07:36.174Z,28.40
2018-03-06T22:10:04.022Z,33.67
2018-03-06T22:12:31.822Z,30.10
2018-03-06T22:15:00.795Z,30.50
2018-03-06T22:17:30.285Z,29.80
2018-03-06T22:19:58.254Z,34.20
2018-03-06T22:22:26.140Z,25.40
2018-03-06T22:24:54.915Z,29.87
2018-03-06T22:27:22.962Z,32.00
2018-03-06T22:29:50.701Z,31.73
2018-03-06T22:32:18.793Z,28.73
2018-03-06T22:34:46.658Z,25.80
2018-03-06T22:37:16.263Z,30.47
2018-03-06T22:39:44.163Z,28.23
2018-03-06T22:42:11.983Z,26.03
2018-03-06T22:44:39.868Z,33.97
2018-03-06T22:47:08.675Z,32.63
2018-03-06T22:49:36.450Z,36.93
2018-03-06T22:52:07.467Z,44.33
2018-03-06T22:57:16.344Z,45.73
2018-03-06T22:59:44.733Z,46.60
2018-03-06T23:02:12.694Z,50.97
2018-03-06T23:04:40.662Z,47.73
2018-03-06T23:07:09.133Z,50.43
2018-03-06T23:09:37.082Z,43.73
2018-03-06T23:12:05.244Z,48.13
2018-03-06T23:14:33.126Z,60.37
2018-03-06T23:17:02.523Z,52.80
2018-03-06T23:19:30.426Z,54.13
2018-03-06T23:21:58.562Z,61.40
2018-03-06T23:24:26.741Z,51.90
2018-03-06T23:26:54.724Z,50.10
2018-03-06T23:29:22.809Z,50.20
2018-03-06T23:31:50.750Z,58.03
2018-03-06T23:34:19.301Z,55.23
2018-03-06T23:36:47.608Z,63.33
